createdAt,value
2023-05-10T00:00:09.106Z,603.00
2023-05-10T00:01:09.088Z,605.00
2023-05-10T00:02:09.107Z,605.00
2023-05-10T00:03:09.093Z,606.00
2023-05-10T00:04:09.161Z,604.00
2023-05-10T00:05:08.990Z,602.00
2023-05-10T00:06:08.960Z,603.00
2023-05-10T00:07:08.946Z,602.00
2023-05-10T00:08:08.938Z,600.00
2023-05-10T00:09:08.890Z,600.00
2023-05-10T00:10:08.883Z,604.00
2023-05-10T00:11:08.863Z,605.00
2023-05-10T00:12:08.836Z,605.00
2023-05-10T00:13:08.852Z,607.00
2023-05-10T00:14:08.795Z,610.00
2023-05-10T00:15:08.785Z,610.00
2023-05-10T00:16:08.817Z,610.00
2023-05-10T00:17:08.737Z,608.00
2023-05-10T00:18:08.849Z,607.00
2023-05-10T00:19:08.724Z,608.00
2023-05-10T00:20:08.694Z,607.00
2023-05-10T00:21:08.667Z,607.00
2023-05-10T00:22:08.669Z,604.00
2023-05-10T00:23:08.605Z,604.00
2023-05-10T00:24:08.587Z,604.00
2023-05-10T00:25:08.575Z,603.00
2023-05-10T00:26:08.567Z,608.00
2023-05-10T00:27:08.507Z,609.00
2023-05-10T00:28:08.494Z,608.00
2023-05-10T00:29:08.468Z,607.00
2023-05-10T00:30:08.445Z,607.00
2023-05-10T00:31:08.428Z,609.00
2023-05-10T00:32:08.519Z,611.00
2023-05-10T00:33:08.409Z,612.00
2023-05-10T00:34:08.353Z,612.00
2023-05-10T00:35:08.321Z,611.00
2023-05-10T00:36:08.314Z,609.00
2023-05-10T00:37:08.265Z,609.00
2023-05-10T00:38:08.253Z,609.00
2023-05-10T00:39:08.223Z,612.00
2023-05-10T00:40:08.192Z,611.00
2023-05-10T00:41:08.170Z,612.00
2023-05-10T00:42:08.147Z,611.00
2023-05-10T00:43:08.122Z,610.00
2023-05-10T00:44:08.099Z,611.00
2023-05-10T00:45:08.085Z,611.00
2023-05-10T00:46:08.104Z,611.00
2023-05-10T00:47:08.047Z,610.00
2023-05-10T00:48:08.069Z,609.00
2023-05-10T00:49:08.004Z,609.00
2023-05-10T00:50:07.983Z,610.00
2023-05-10T00:51:07.962Z,612.00
2023-05-10T00:52:07.929Z,614.00
2023-05-10T00:53:07.903Z,614.00
2023-05-10T00:54:07.892Z,615.00
2023-05-10T00:55:07.859Z,616.00
2023-05-10T00:56:07.837Z,617.00
2023-05-10T00:57:07.821Z,616.00
2023-05-10T00:58:07.790Z,616.00
2023-05-10T00:59:07.769Z,617.00
2023-05-10T01:00:07.764Z,615.00
2023-05-10T01:01:07.735Z,616.00
2023-05-10T01:02:07.737Z,614.00
2023-05-10T01:03:07.794Z,614.00
2023-05-10T01:04:07.640Z,615.00
2023-05-10T01:05:07.668Z,616.00
2023-05-10T01:06:07.602Z,616.00
2023-05-10T01:07:07.572Z,618.00
2023-05-10T01:08:07.548Z,617.00
2023-05-10T01:09:07.543Z,619.00
2023-05-10T01:10:07.499Z,619.00
2023-05-10T01:11:07.477Z,619.00
2023-05-10T01:12:07.479Z,619.00
2023-05-10T01:13:07.475Z,619.00
2023-05-10T01:14:07.432Z,618.00
2023-05-10T01:15:07.417Z,619.00
2023-05-10T01:16:07.430Z,620.00
2023-05-10T01:17:07.355Z,620.00
2023-05-10T01:18:07.336Z,621.00
2023-05-10T01:19:07.341Z,622.00
2023-05-10T01:20:07.297Z,624.00
2023-05-10T01:21:07.272Z,623.00
2023-05-10T01:22:07.263Z,622.00
2023-05-10T01:23:07.245Z,620.00
2023-05-10T01:24:07.228Z,619.00
2023-05-10T01:25:07.254Z,619.00
2023-05-10T01:26:07.182Z,618.00
2023-05-10T01:27:07.163Z,615.00
2023-05-10T01:28:07.233Z,613.00
2023-05-10T01:29:07.127Z,611.00
2023-05-10T01:30:15.331Z,612.00
2023-05-10T01:31:08.117Z,610.00
2023-05-10T01:32:07.075Z,611.00
2023-05-10T01:33:07.082Z,612.00
2023-05-10T01:34:07.016Z,612.00
2023-05-10T01:35:07.047Z,612.00
2023-05-10T01:36:07.630Z,611.00
2023-05-10T01:37:06.957Z,609.00
2023-05-10T01:38:06.915Z,610.00
2023-05-10T01:39:06.926Z,611.00
2023-05-10T01:40:06.878Z,611.00
2023-05-10T01:41:06.840Z,610.00
2023-05-10T01:42:06.868Z,610.00
2023-05-10T01:43:06.817Z,608.00
2023-05-10T01:44:06.798Z,610.00
2023-05-10T01:45:06.780Z,609.00
2023-05-10T01:46:06.760Z,611.00
2023-05-10T01:47:06.746Z,612.00
2023-05-10T01:48:06.805Z,612.00
2023-05-10T01:49:06.708Z,609.00
2023-05-10T01:50:06.690Z,610.00
2023-05-10T01:51:06.657Z,613.00
2023-05-10T01:52:06.649Z,613.00
2023-05-10T01:53:06.615Z,614.00
2023-05-10T01:54:06.586Z,612.00
2023-05-10T01:55:06.583Z,615.00
2023-05-10T01:56:06.540Z,615.00
2023-05-10T01:57:06.563Z,615.00
2023-05-10T01:58:06.507Z,617.00
2023-05-10T01:59:06.487Z,620.00
2023-05-10T02:00:06.456Z,623.00
2023-05-10T02:01:06.482Z,623.00
2023-05-10T02:02:06.426Z,623.00
2023-05-10T02:03:06.488Z,620.00
2023-05-10T02:04:06.472Z,620.00
2023-05-10T02:05:06.351Z,618.00
2023-05-10T02:06:06.325Z,615.00
2023-05-10T02:07:06.292Z,614.00
2023-05-10T02:08:06.275Z,613.00
2023-05-10T02:09:06.252Z,616.00
2023-05-10T02:10:06.211Z,619.00
2023-05-10T02:11:06.185Z,618.00
2023-05-10T02:12:06.153Z,617.00
2023-05-10T02:13:06.139Z,617.00
2023-05-10T02:14:06.099Z,618.00
2023-05-10T02:15:06.076Z,618.00
2023-05-10T02:16:06.172Z,618.00
2023-05-10T02:17:06.020Z,619.00
2023-05-10T02:18:06.005Z,619.00
2023-05-10T02:19:05.978Z,619.00
2023-05-10T02:20:05.948Z,617.00
2023-05-10T02:21:05.922Z,619.00
2023-05-10T02:22:05.890Z,618.00
2023-05-10T02:23:05.885Z,619.00
2023-05-10T02:24:05.875Z,618.00
2023-05-10T02:25:05.850Z,617.00
2023-05-10T02:26:05.839Z,616.00
2023-05-10T02:27:05.824Z,620.00
2023-05-10T02:28:05.801Z,620.00
2023-05-10T02:29:05.789Z,619.00
2023-05-10T02:30:05.774Z,620.00
2023-05-10T02:31:05.747Z,620.00
2023-05-10T02:32:05.789Z,618.00
2023-05-10T02:33:05.746Z,618.00
2023-05-10T02:34:05.705Z,618.00
2023-05-10T02:35:05.700Z,620.00
2023-05-10T02:36:05.685Z,620.00
2023-05-10T02:37:05.668Z,621.00
2023-05-10T02:38:05.661Z,621.00
2023-05-10T02:39:05.641Z,618.00
2023-05-10T02:40:05.628Z,619.00
2023-05-10T02:41:05.617Z,620.00
2023-05-10T02:42:05.604Z,620.00
2023-05-10T02:43:05.595Z,617.00
2023-05-10T02:44:05.576Z,616.00
2023-05-10T02:45:05.555Z,614.00
2023-05-10T02:46:05.578Z,616.00
2023-05-10T02:47:05.517Z,618.00
2023-05-10T02:48:05.571Z,619.00
2023-05-10T02:49:05.499Z,618.00
2023-05-10T02:50:05.475Z,616.00
2023-05-10T02:51:05.459Z,616.00
2023-05-10T02:52:05.443Z,615.00
2023-05-10T02:53:05.431Z,615.00
2023-05-10T02:54:05.408Z,617.00
2023-05-10T02:55:05.387Z,617.00
2023-05-10T02:56:05.371Z,615.00
2023-05-10T02:57:05.376Z,615.00
2023-05-10T02:58:05.356Z,615.00
2023-05-10T02:59:05.332Z,611.00
2023-05-10T03:00:05.321Z,608.00
2023-05-10T03:01:05.342Z,611.00
2023-05-10T03:02:05.294Z,613.00
2023-05-10T03:03:05.309Z,613.00
2023-05-10T03:04:05.412Z,611.00
2023-05-10T03:05:05.265Z,611.00
2023-05-10T03:06:05.250Z,612.00
2023-05-10T03:07:05.245Z,612.00
2023-05-10T03:08:05.265Z,612.00
2023-05-10T03:09:05.238Z,609.00
2023-05-10T03:10:05.224Z,614.00
2023-05-10T03:11:05.217Z,612.00
2023-05-10T03:12:05.219Z,611.00
2023-05-10T03:13:05.254Z,612.00
2023-05-10T03:14:05.209Z,611.00
2023-05-10T03:15:05.196Z,611.00
2023-05-10T03:16:05.207Z,609.00
2023-05-10T03:17:05.179Z,610.00
2023-05-10T03:18:05.202Z,609.00
2023-05-10T03:19:05.157Z,610.00
2023-05-10T03:20:05.167Z,609.00
2023-05-10T03:21:05.140Z,611.00
2023-05-10T03:22:05.133Z,610.00
2023-05-10T03:23:05.123Z,611.00
2023-05-10T03:24:05.112Z,610.00
2023-05-10T03:25:05.099Z,609.00
2023-05-10T03:26:05.096Z,607.00
2023-05-10T03:27:05.078Z,607.00
2023-05-10T03:28:05.071Z,607.00
2023-05-10T03:29:05.073Z,609.00
2023-05-10T03:30:05.066Z,609.00
2023-05-10T03:31:05.100Z,610.00
2023-05-10T03:32:05.057Z,613.00
2023-05-10T03:33:05.055Z,613.00
2023-05-10T03:34:05.046Z,614.00
2023-05-10T03:35:05.031Z,614.00
2023-05-10T03:36:05.027Z,616.00
2023-05-10T03:37:05.019Z,616.00
2023-05-10T03:38:05.015Z,616.00
2023-05-10T03:39:05.012Z,616.00
2023-05-10T03:40:05.013Z,614.00
2023-05-10T03:41:04.983Z,614.00
2023-05-10T03:42:04.987Z,617.00
2023-05-10T03:43:04.979Z,618.00
2023-05-10T03:44:04.989Z,619.00
2023-05-10T03:45:04.984Z,618.00
2023-05-10T03:46:04.978Z,617.00
2023-05-10T03:47:05.020Z,616.00
2023-05-10T03:48:05.057Z,612.00
2023-05-10T03:49:04.986Z,610.00
2023-05-10T03:50:04.981Z,609.00
2023-05-10T03:51:05.051Z,608.00
2023-05-10T03:52:04.978Z,608.00
2023-05-10T03:53:04.968Z,608.00
2023-05-10T03:54:04.970Z,609.00
2023-05-10T03:55:04.988Z,612.00
2023-05-10T03:56:04.960Z,614.00
2023-05-10T03:57:04.968Z,616.00
2023-05-10T03:58:04.952Z,614.00
2023-05-10T03:59:04.957Z,614.00
2023-05-10T04:00:05.008Z,615.00
2023-05-10T04:01:04.973Z,614.00
2023-05-10T04:02:04.956Z,616.00
2023-05-10T04:03:04.997Z,616.00
2023-05-10T04:04:04.973Z,613.00
2023-05-10T04:05:04.948Z,614.00
2023-05-10T04:06:04.986Z,615.00
2023-05-10T04:07:04.932Z,614.00
2023-05-10T04:08:04.930Z,613.00
2023-05-10T04:09:04.955Z,611.00
2023-05-10T04:10:04.937Z,609.00
2023-05-10T04:11:04.926Z,608.00
2023-05-10T04:12:04.930Z,608.00
2023-05-10T04:13:04.966Z,607.00
2023-05-10T04:14:04.937Z,608.00
2023-05-10T04:15:04.925Z,608.00
2023-05-10T04:16:04.927Z,604.00
2023-05-10T04:17:04.948Z,604.00
2023-05-10T04:18:06.568Z,605.00
2023-05-10T04:19:04.913Z,605.00
2023-05-10T04:20:04.883Z,607.00
2023-05-10T04:21:04.859Z,607.00
2023-05-10T04:22:04.852Z,606.00
2023-05-10T04:23:04.832Z,606.00
2023-05-10T04:24:04.809Z,605.00
2023-05-10T04:25:04.794Z,607.00
2023-05-10T04:26:04.761Z,610.00
2023-05-10T04:27:04.734Z,607.00
2023-05-10T04:28:04.730Z,606.00
2023-05-10T04:29:04.720Z,609.00
2023-05-10T04:30:04.685Z,607.00
2023-05-10T04:31:04.695Z,607.00
2023-05-10T04:32:04.635Z,606.00
2023-05-10T04:33:04.650Z,606.00
2023-05-10T04:34:04.609Z,606.00
2023-05-10T04:35:04.597Z,610.00
2023-05-10T04:36:04.561Z,608.00
2023-05-10T04:37:04.534Z,609.00
2023-05-10T04:38:04.520Z,612.00
2023-05-10T04:39:04.497Z,612.00
2023-05-10T04:40:04.469Z,609.00
2023-05-10T04:41:04.473Z,607.00
2023-05-10T04:42:04.454Z,607.00
2023-05-10T04:43:04.419Z,606.00
2023-05-10T04:44:04.399Z,605.00
2023-05-10T04:45:04.374Z,609.00
2023-05-10T04:46:04.378Z,608.00
2023-05-10T04:47:04.354Z,607.00
2023-05-10T04:48:04.347Z,609.00
2023-05-10T04:49:04.283Z,610.00
2023-05-10T04:50:04.257Z,609.00
2023-05-10T04:51:04.235Z,608.00
2023-05-10T04:52:04.221Z,609.00
2023-05-10T04:53:04.195Z,609.00
2023-05-10T04:54:06.471Z,607.00
2023-05-10T04:55:04.159Z,608.00
2023-05-10T04:56:04.127Z,611.00
2023-05-10T04:57:04.119Z,612.00
2023-05-10T04:58:04.094Z,611.00
2023-05-10T04:59:04.076Z,612.00
2023-05-10T05:00:04.054Z,611.00
2023-05-10T05:01:04.046Z,612.00
2023-05-10T05:02:04.070Z,612.00
2023-05-10T05:03:04.116Z,614.00
2023-05-10T05:04:03.978Z,614.00
2023-05-10T05:05:03.957Z,613.00
2023-05-10T05:06:03.946Z,615.00
2023-05-10T05:07:03.917Z,611.00
2023-05-10T05:08:03.894Z,611.00
2023-05-10T05:09:03.877Z,611.00
2023-05-10T05:10:03.868Z,610.00
2023-05-10T05:11:03.850Z,610.00
2023-05-10T05:12:03.826Z,612.00
2023-05-10T05:13:04.751Z,613.00
2023-05-10T05:14:03.794Z,612.00
2023-05-10T05:15:03.758Z,609.00
2023-05-10T05:16:03.857Z,608.00
2023-05-10T05:17:03.764Z,606.00
2023-05-10T05:18:03.768Z,605.00
2023-05-10T05:19:03.695Z,586.00
2023-05-10T05:20:03.667Z,573.00
2023-05-10T05:21:03.658Z,571.00
2023-05-10T05:22:03.646Z,570.00
2023-05-10T05:23:03.627Z,568.00
2023-05-10T05:24:03.610Z,568.00
2023-05-10T05:25:03.613Z,680.00
2023-05-10T05:26:03.642Z,835.00
2023-05-10T05:27:03.570Z,743.00
2023-05-10T05:28:03.559Z,739.00
2023-05-10T05:29:03.542Z,735.00
2023-05-10T05:30:03.509Z,732.00
2023-05-10T05:31:03.504Z,717.00
2023-05-10T05:32:03.503Z,645.00
2023-05-10T05:33:03.473Z,622.00
2023-05-10T05:34:03.441Z,625.00
2023-05-10T05:35:03.467Z,623.00
2023-05-10T05:36:03.435Z,624.00
2023-05-10T05:37:03.382Z,627.00
2023-05-10T05:38:03.366Z,642.00
2023-05-10T05:39:03.348Z,655.00
2023-05-10T05:40:03.312Z,661.00
2023-05-10T05:41:03.308Z,671.00
2023-05-10T05:42:03.271Z,687.00
2023-05-10T05:43:03.254Z,704.00
2023-05-10T05:44:03.241Z,715.00
2023-05-10T05:45:03.278Z,725.00
2023-05-10T05:46:03.230Z,735.00
2023-05-10T05:47:03.157Z,741.00
2023-05-10T05:48:03.201Z,745.00
2023-05-10T05:49:03.111Z,748.00
2023-05-10T05:50:03.092Z,749.00
2023-05-10T05:51:04.169Z,753.00
2023-05-10T05:52:03.057Z,756.00
2023-05-10T05:53:03.000Z,754.00
2023-05-10T05:54:02.992Z,753.00
2023-05-10T05:55:02.997Z,754.00
2023-05-10T05:56:02.949Z,756.00
2023-05-10T05:57:02.916Z,758.00
2023-05-10T05:58:02.923Z,759.00
2023-05-10T05:59:03.727Z,762.00
2023-05-10T06:00:02.857Z,764.00
2023-05-10T06:01:02.853Z,764.00
2023-05-10T06:02:02.863Z,761.00
2023-05-10T06:03:02.949Z,759.00
2023-05-10T06:04:02.935Z,756.00
2023-05-10T06:05:02.803Z,754.00
2023-05-10T06:06:02.811Z,754.00
2023-05-10T06:07:02.784Z,754.00
2023-05-10T06:08:02.769Z,757.00
2023-05-10T06:09:02.745Z,756.00
2023-05-10T06:10:03.669Z,753.00
2023-05-10T06:11:02.734Z,758.00
2023-05-10T06:12:02.715Z,760.00
2023-05-10T06:13:02.711Z,763.00
2023-05-10T06:14:02.663Z,765.00
2023-05-10T06:15:02.629Z,766.00
2023-05-10T06:16:02.604Z,766.00
2023-05-10T06:17:02.741Z,768.00
2023-05-10T06:18:02.580Z,771.00
2023-05-10T06:19:02.531Z,770.00
2023-05-10T06:20:02.525Z,772.00
2023-05-10T06:21:02.554Z,775.00
2023-05-10T06:22:02.465Z,777.00
2023-05-10T06:23:02.433Z,766.00
2023-05-10T06:24:02.403Z,683.00
2023-05-10T06:25:02.379Z,629.00
2023-05-10T06:26:02.349Z,605.00
2023-05-10T06:27:02.350Z,645.00
2023-05-10T06:28:02.321Z,559.00
2023-05-10T06:29:02.343Z,554.00
2023-05-10T06:30:12.230Z,567.00
2023-05-10T06:31:03.401Z,580.00
2023-05-10T06:32:02.296Z,574.00
2023-05-10T06:33:02.306Z,544.00
2023-05-10T06:34:02.277Z,526.00
2023-05-10T06:35:02.277Z,512.00
2023-05-10T06:36:02.259Z,512.00
2023-05-10T06:37:02.251Z,521.00
2023-05-10T06:38:02.258Z,525.00
2023-05-10T06:39:02.251Z,512.00
2023-05-10T06:40:02.242Z,510.00
2023-05-10T06:41:02.240Z,507.00
2023-05-10T06:42:02.307Z,505.00
2023-05-10T06:43:02.361Z,495.00
2023-05-10T06:44:02.453Z,489.00
2023-05-10T06:45:02.476Z,484.00
2023-05-10T06:46:02.561Z,486.00
2023-05-10T06:47:02.586Z,491.00
2023-05-10T06:48:02.662Z,494.00
2023-05-10T06:49:02.655Z,494.00
2023-05-10T06:50:02.694Z,498.00
2023-05-10T06:51:02.718Z,501.00
2023-05-10T06:52:02.735Z,503.00
2023-05-10T06:53:02.753Z,504.00
2023-05-10T06:54:02.784Z,506.00
2023-05-10T06:55:02.797Z,508.00
2023-05-10T06:56:02.909Z,508.00
2023-05-10T06:57:04.205Z,516.00
2023-05-10T06:58:02.798Z,529.00
2023-05-10T06:59:02.840Z,535.00
2023-05-10T07:00:02.764Z,542.00
2023-05-10T07:01:02.791Z,550.00
2023-05-10T07:02:02.804Z,552.00
2023-05-10T07:03:02.769Z,556.00
2023-05-10T07:04:02.767Z,558.00
2023-05-10T07:05:03.453Z,553.00
2023-05-10T07:06:02.661Z,545.00
2023-05-10T07:07:02.650Z,540.00
2023-05-10T07:08:02.631Z,538.00
2023-05-10T07:09:02.621Z,544.00
2023-05-10T07:10:02.597Z,543.00
2023-05-10T07:11:02.559Z,540.00
2023-05-10T07:12:02.676Z,539.00
2023-05-10T07:13:02.594Z,540.00
2023-05-10T07:14:02.494Z,547.00
2023-05-10T07:15:02.479Z,561.00
2023-05-10T07:16:02.484Z,559.00
2023-05-10T07:17:02.452Z,562.00
2023-05-10T07:18:02.543Z,622.00
2023-05-10T07:19:02.401Z,647.00
2023-05-10T07:20:02.382Z,643.00
2023-05-10T07:21:02.399Z,742.00
2023-05-10T07:22:03.270Z,731.00
2023-05-10T07:23:02.349Z,814.00
2023-05-10T07:24:02.300Z,918.00
2023-05-10T07:25:02.292Z,1113.00
2023-05-10T07:26:02.258Z,984.00
2023-05-10T07:27:02.227Z,991.00
2023-05-10T07:28:02.179Z,1010.00
2023-05-10T07:29:02.148Z,1028.00
2023-05-10T07:30:02.132Z,1043.00
2023-05-10T07:31:02.129Z,1128.00
2023-05-10T07:32:02.082Z,1142.00
2023-05-10T07:33:02.074Z,1150.00
2023-05-10T07:34:01.974Z,1171.00
2023-05-10T07:35:01.965Z,1218.00
2023-05-10T07:36:01.917Z,1300.00
2023-05-10T07:37:01.870Z,1300.00
2023-05-10T07:38:01.835Z,1297.00
2023-05-10T07:39:01.792Z,1309.00
2023-05-10T07:40:01.762Z,1356.00
2023-05-10T07:41:01.749Z,1411.00
2023-05-10T07:42:01.659Z,1435.00
2023-05-10T07:43:01.612Z,1494.00
2023-05-10T07:44:01.574Z,1514.00
2023-05-10T07:45:01.535Z,1537.00
2023-05-10T07:46:01.512Z,1549.00
2023-05-10T07:47:01.431Z,1595.00
2023-05-10T07:48:01.459Z,1645.00
2023-05-10T07:49:01.353Z,1675.00
2023-05-10T07:50:01.352Z,1753.00
2023-05-10T07:51:01.355Z,1758.00
2023-05-10T07:52:01.326Z,1804.00
2023-05-10T07:53:01.316Z,1825.00
2023-05-10T07:54:01.327Z,1876.00
2023-05-10T07:55:01.280Z,1894.00
2023-05-10T07:56:01.278Z,1929.00
2023-05-10T07:57:01.256Z,1952.00
2023-05-10T07:58:01.253Z,2053.00
2023-05-10T07:59:01.223Z,2050.00
2023-05-10T08:00:01.217Z,2057.00
2023-05-10T08:01:01.175Z,2063.00
2023-05-10T08:02:01.162Z,2080.00
2023-05-10T08:03:01.215Z,2104.00
2023-05-10T08:04:01.223Z,2113.00
2023-05-10T08:05:01.074Z,2211.00
2023-05-10T08:06:01.051Z,2232.00
2023-05-10T08:07:01.011Z,2240.00
2023-05-10T08:08:00.984Z,2300.00
2023-05-10T08:09:00.973Z,2309.00
2023-05-10T08:10:00.957Z,2327.00
2023-05-10T08:11:00.891Z,2397.00
2023-05-10T08:12:00.868Z,2417.00
2023-05-10T08:13:00.829Z,2424.00
2023-05-10T08:14:00.798Z,2414.00
2023-05-10T08:15:01.147Z,2400.00
2023-05-10T08:16:00.911Z,1559.00
2023-05-10T08:17:00.745Z,1264.00
2023-05-10T08:18:00.771Z,1042.00
2023-05-10T08:19:00.833Z,981.00
2023-05-10T08:20:00.792Z,940.00
2023-05-10T08:21:00.807Z,860.00
2023-05-10T08:22:00.864Z,898.00
2023-05-10T08:23:00.896Z,739.00
2023-05-10T08:24:00.895Z,664.00
2023-05-10T08:25:00.896Z,647.00
2023-05-10T08:26:00.872Z,752.00
2023-05-10T08:27:00.854Z,796.00
2023-05-10T08:28:00.830Z,850.00
2023-05-10T08:29:00.890Z,1013.00
2023-05-10T08:30:01.142Z,954.00
2023-05-10T08:31:00.928Z,914.00
2023-05-10T08:32:00.944Z,1180.00
2023-05-10T08:33:01.050Z,1060.00
2023-05-10T08:34:01.787Z,1048.00
2023-05-10T08:35:00.972Z,1137.00
2023-05-10T08:36:01.957Z,1097.00
2023-05-10T08:37:00.903Z,1131.00
2023-05-10T08:38:00.884Z,1178.00
2023-05-10T08:39:00.814Z,1272.00
2023-05-10T08:40:00.799Z,1362.00
2023-05-10T08:41:00.785Z,1350.00
2023-05-10T08:42:00.703Z,1345.00
2023-05-10T08:43:00.674Z,1377.00
2023-05-10T08:44:00.623Z,1421.00
2023-05-10T08:45:00.591Z,1491.00
2023-05-10T08:46:00.547Z,1543.00
2023-05-10T08:47:00.668Z,1544.00
2023-05-10T08:48:00.553Z,1554.00
2023-05-10T08:49:00.425Z,1556.00
2023-05-10T08:50:00.398Z,1562.00
2023-05-10T08:51:00.350Z,1730.00
2023-05-10T08:52:00.307Z,1720.00
2023-05-10T08:53:00.256Z,1746.00
2023-05-10T08:54:00.207Z,1822.00
2023-05-10T08:55:00.201Z,1905.00
2023-05-10T08:56:00.166Z,1905.00
2023-05-10T08:57:00.150Z,1903.00
2023-05-10T08:58:00.098Z,1975.00
2023-05-10T08:59:00.073Z,1993.00
2023-05-10T09:00:00.051Z,2008.00
2023-05-10T09:01:00.005Z,2030.00
2023-05-10T09:01:59.964Z,2198.00
2023-05-10T09:02:59.955Z,2196.00
2023-05-10T09:04:00.047Z,2201.00
2023-05-10T09:05:00.025Z,2204.00
2023-05-10T09:05:59.845Z,2286.00
2023-05-10T09:06:59.817Z,2402.00
2023-05-10T09:07:59.755Z,2585.00
2023-05-10T09:08:59.705Z,2515.00
2023-05-10T09:09:59.667Z,2417.00
2023-05-10T09:11:00.632Z,2450.00
2023-05-10T09:11:59.580Z,2541.00
2023-05-10T09:12:59.739Z,2569.00
2023-05-10T09:13:59.500Z,2588.00
2023-05-10T09:14:59.442Z,2698.00
2023-05-10T09:16:04.439Z,2646.00
2023-05-10T09:17:00.384Z,2601.00
2023-05-10T09:17:59.359Z,2567.00
2023-05-10T09:18:59.312Z,2576.00
2023-05-10T09:19:59.313Z,2590.00
2023-05-10T09:20:59.187Z,2598.00
2023-05-10T09:21:59.140Z,2597.00
2023-05-10T09:22:59.090Z,2599.00
2023-05-10T09:23:59.080Z,2600.00
2023-05-10T09:24:59.009Z,2596.00
2023-05-10T09:25:58.953Z,2592.00
2023-05-10T09:26:58.903Z,2592.00
2023-05-10T09:27:58.876Z,2589.00
2023-05-10T09:28:58.810Z,2587.00
2023-05-10T09:29:58.766Z,2580.00
2023-05-10T09:30:59.329Z,2576.00
2023-05-10T09:31:58.756Z,2571.00
2023-05-10T09:32:58.801Z,2568.00
2023-05-10T09:33:58.739Z,2566.00
2023-05-10T09:34:58.728Z,2557.00
2023-05-10T09:35:58.740Z,2554.00
2023-05-10T09:36:58.716Z,2549.00
2023-05-10T09:37:58.746Z,2550.00
2023-05-10T09:38:58.699Z,2548.00
2023-05-10T09:39:58.693Z,2544.00
2023-05-10T09:40:58.703Z,2543.00
2023-05-10T09:41:58.702Z,2544.00
2023-05-10T09:42:58.689Z,2544.00
2023-05-10T09:43:58.692Z,2541.00
2023-05-10T09:44:58.683Z,2536.00
2023-05-10T09:45:58.697Z,2538.00
2023-05-10T09:46:58.697Z,2534.00
2023-05-10T09:47:58.751Z,2526.00
2023-05-10T09:48:58.710Z,2520.00
2023-05-10T09:49:58.700Z,2516.00
2023-05-10T09:50:58.712Z,2517.00
2023-05-10T09:51:58.705Z,2523.00
2023-05-10T09:52:58.730Z,2523.00
2023-05-10T09:53:58.714Z,2525.00
2023-05-10T09:54:58.732Z,2516.00
2023-05-10T09:55:58.735Z,2515.00
2023-05-10T09:56:58.746Z,2516.00
2023-05-10T09:57:58.739Z,2511.00
2023-05-10T09:58:58.746Z,2509.00
2023-05-10T09:59:58.747Z,2513.00
2023-05-10T10:00:58.757Z,2513.00
2023-05-10T10:01:58.917Z,2517.00
2023-05-10T10:02:58.885Z,2515.00
2023-05-10T10:03:58.785Z,2506.00
2023-05-10T10:04:58.848Z,2499.00
2023-05-10T10:05:58.836Z,2494.00
2023-05-10T10:06:58.825Z,2484.00
2023-05-10T10:07:58.841Z,2483.00
2023-05-10T10:08:59.756Z,2485.00
2023-05-10T10:09:58.864Z,2485.00
2023-05-10T10:10:58.876Z,2482.00
2023-05-10T10:11:58.895Z,2482.00
2023-05-10T10:12:58.899Z,2478.00
2023-05-10T10:13:58.913Z,2474.00
2023-05-10T10:14:58.932Z,2471.00
2023-05-10T10:15:59.125Z,2466.00
2023-05-10T10:17:06.713Z,2464.00
2023-05-10T10:17:59.955Z,2470.00
2023-05-10T10:18:58.903Z,2470.00
2023-05-10T10:19:58.840Z,2470.00
2023-05-10T10:20:58.794Z,2469.00
2023-05-10T10:21:58.757Z,2473.00
2023-05-10T10:22:58.736Z,2478.00
2023-05-10T10:23:58.708Z,2486.00
2023-05-10T10:24:58.640Z,2486.00
2023-05-10T10:25:58.603Z,2483.00
2023-05-10T10:26:58.571Z,2480.00
2023-05-10T10:27:58.574Z,2481.00
2023-05-10T10:28:58.604Z,2479.00
2023-05-10T10:29:58.603Z,2468.00
2023-05-10T10:30:58.683Z,2461.00
2023-05-10T10:31:58.777Z,2458.00
2023-05-10T10:32:58.702Z,2460.00
2023-05-10T10:33:58.671Z,2466.00
2023-05-10T10:34:59.276Z,2467.00
2023-05-10T10:35:58.707Z,2469.00
2023-05-10T10:36:58.723Z,2465.00
2023-05-10T10:37:58.743Z,2467.00
2023-05-10T10:38:58.758Z,2467.00
2023-05-10T10:39:58.772Z,2460.00
2023-05-10T10:40:58.794Z,2456.00
2023-05-10T10:41:58.819Z,2454.00
2023-05-10T10:42:58.843Z,2457.00
2023-05-10T10:43:58.825Z,2454.00
2023-05-10T10:44:58.838Z,2447.00
2023-05-10T10:45:58.857Z,2441.00
2023-05-10T10:46:58.902Z,2440.00
2023-05-10T10:47:58.922Z,2446.00
2023-05-10T10:48:58.914Z,2449.00
2023-05-10T10:49:58.990Z,2447.00
2023-05-10T10:50:58.960Z,2443.00
2023-05-10T10:51:58.965Z,2442.00
2023-05-10T10:52:59.022Z,2439.00
2023-05-10T10:53:59.008Z,2436.00
2023-05-10T10:54:59.099Z,2426.00
2023-05-10T10:55:59.069Z,2421.00
2023-05-10T10:56:59.064Z,2427.00
2023-05-10T10:57:59.089Z,2422.00
2023-05-10T10:58:59.097Z,2415.00
2023-05-10T10:59:59.115Z,2411.00
2023-05-10T11:00:59.228Z,2410.00
2023-05-10T11:01:59.169Z,2403.00
2023-05-10T11:02:59.254Z,2402.00
2023-05-10T11:03:59.246Z,2401.00
2023-05-10T11:04:59.243Z,2397.00
2023-05-10T11:05:59.260Z,2393.00
2023-05-10T11:06:59.283Z,2400.00
2023-05-10T11:07:59.317Z,2406.00
2023-05-10T11:08:59.370Z,2404.00
2023-05-10T11:09:59.377Z,2399.00
2023-05-10T11:10:59.398Z,2384.00
2023-05-10T11:11:59.426Z,2384.00
2023-05-10T11:12:59.437Z,2392.00
2023-05-10T11:13:59.465Z,2395.00
2023-05-10T11:14:59.505Z,2398.00
2023-05-10T11:15:59.526Z,2402.00
2023-05-10T11:16:59.605Z,2401.00
2023-05-10T11:17:59.616Z,2398.00
2023-05-10T11:18:59.630Z,2398.00
2023-05-10T11:19:59.635Z,2403.00
2023-05-10T11:20:59.675Z,2403.00
2023-05-10T11:21:59.744Z,2394.00
2023-05-10T11:22:59.747Z,2395.00
2023-05-10T11:23:59.766Z,2394.00
2023-05-10T11:24:59.820Z,2391.00
2023-05-10T11:25:59.826Z,2385.00
2023-05-10T11:26:59.859Z,2387.00
2023-05-10T11:27:59.901Z,2384.00
2023-05-10T11:28:59.937Z,2390.00
2023-05-10T11:29:59.964Z,2390.00
2023-05-10T11:31:00.014Z,2391.00
2023-05-10T11:32:00.105Z,2385.00
2023-05-10T11:33:00.120Z,2380.00
2023-05-10T11:34:00.141Z,2378.00
2023-05-10T11:35:00.153Z,2376.00
2023-05-10T11:36:00.180Z,2381.00
2023-05-10T11:37:00.231Z,2389.00
2023-05-10T11:38:00.238Z,2390.00
2023-05-10T11:39:00.271Z,2395.00
2023-05-10T11:40:00.317Z,2398.00
2023-05-10T11:41:00.381Z,2399.00
2023-05-10T11:42:00.395Z,2400.00
2023-05-10T11:43:00.420Z,2392.00
2023-05-10T11:44:00.467Z,2391.00
2023-05-10T11:45:00.488Z,2388.00
2023-05-10T11:46:00.577Z,2385.00
2023-05-10T11:47:00.558Z,2383.00
2023-05-10T11:48:00.674Z,2379.00
2023-05-10T11:49:00.651Z,2376.00
2023-05-10T11:50:00.667Z,2378.00
2023-05-10T11:51:00.703Z,2379.00
2023-05-10T11:52:00.738Z,2380.00
2023-05-10T11:53:00.764Z,2383.00
2023-05-10T11:54:00.884Z,2383.00
2023-05-10T11:55:00.835Z,2385.00
2023-05-10T11:56:00.880Z,2384.00
2023-05-10T11:57:00.897Z,2384.00
2023-05-10T11:58:00.927Z,2380.00
2023-05-10T11:59:00.958Z,2382.00
2023-05-10T12:00:01.213Z,2379.00
2023-05-10T12:01:01.054Z,2376.00
2023-05-10T12:02:01.071Z,2381.00
2023-05-10T12:03:01.238Z,2378.00
2023-05-10T12:04:01.388Z,2377.00
2023-05-10T12:05:01.328Z,2373.00
2023-05-10T12:06:01.235Z,2375.00
2023-05-10T12:07:01.245Z,2369.00
2023-05-10T12:08:01.279Z,2365.00
2023-05-10T12:09:01.319Z,2361.00
2023-05-10T12:10:01.377Z,2355.00
2023-05-10T12:11:01.400Z,2355.00
2023-05-10T12:12:01.418Z,2355.00
2023-05-10T12:13:01.454Z,2356.00
2023-05-10T12:14:01.499Z,2355.00
2023-05-10T12:15:01.534Z,2355.00
2023-05-10T12:17:01.611Z,2360.00
2023-05-10T12:18:01.666Z,2355.00
2023-05-10T12:19:01.816Z,2353.00
2023-05-10T12:20:01.719Z,2352.00